sensor_id;sensor_type;location;lat;lon;timestamp;pressure;altitude;pressure_sealevel;temperature;humidity
5522;BME280;2783;48.730;8.006;2022-10-13T00:01:39;100642.25;;;13.87;100.00
5522;BME280;2783;48.730;8.006;2022-10-13T00:04:04;100636.38;;;13.76;100.00
5522;BME280;2783;48.730;8.006;2022-10-13T00:06:31;100634.97;;;13.66;100.00
5522;BME280;2783;48.730;8.006;2022-10-13T00:08:57;100636.91;;;13.61;100.00
5522;BME280;2783;48.730;8.006;2022-10-13T00:11:26;100634.59;;;13.52;100.00
5522;BME280;2783;48.730;8.006;2022-10-13T00:14:01;100640.22;;;13.43;100.00
5522;BME280;2783;48.730;8.006;2022-10-13T00:16:28;100634.28;;;13.35;100.00
5522;BME280;2783;48.730;8.006;2022-10-13T00:18:54;100632.81;;;13.26;100.00
5522;BME280;2783;48.730;8.006;2022-10-13T00:21:22;100630.31;;;13.20;100.00
5522;BME280;2783;48.730;8.006;2022-10-13T00:23:49;100620.94;;;13.08;100.00
5522;BME280;2783;48.730;8.006;2022-10-13T00:26:15;100628.84;;;13.11;100.00
5522;BME280;2783;48.730;8.006;2022-10-13T00:28:41;100631.44;;;13.13;100.00
5522;BME280;2783;48.730;8.006;2022-10-13T00:31:27;100625.97;;;13.17;100.00
5522;BME280;2783;48.730;8.006;2022-10-13T00:33:53;100620.13;;;13.33;100.00
5522;BME280;2783;48.730;8.006;2022-10-13T00:36:20;100612.50;;;13.47;100.00
5522;BME280;2783;48.730;8.006;2022-10-13T00:38:46;100620.19;;;13.56;100.00
5522;BME280;2783;48.730;8.006;2022-10-13T00:41:12;100617.19;;;13.65;100.00
5522;BME280;2783;48.730;8.006;2022-10-13T00:43:57;100617.91;;;13.70;100.00
5522;BME280;2783;48.730;8.006;2022-10-13T00:46:30;100615.09;;;13.73;100.00
5522;BME280;2783;48.730;8.006;2022-10-13T00:48:59;100616.75;;;13.77;100.00
5522;BME280;2783;48.730;8.006;2022-10-13T00:51:29;100615.00;;;13.76;100.00
5522;BME280;2783;48.730;8.006;2022-10-13T00:53:57;100598.47;;;13.65;100.00
5522;BME280;2783;48.730;8.006;2022-10-13T00:56:24;100606.59;;;13.62;100.00
5522;BME280;2783;48.730;8.006;2022-10-13T00:58:50;100598.00;;;13.54;100.00
5522;BME280;2783;48.730;8.006;2022-10-13T01:01:17;100608.56;;;13.57;100.00
5522;BME280;2783;48.730;8.006;2022-10-13T01:03:42;100603.41;;;13.52;100.00
5522;BME280;2783;48.730;8.006;2022-10-13T01:06:08;100595.31;;;13.54;100.00
5522;BME280;2783;48.730;8.006;2022-10-13T01:08:34;100579.34;;;13.52;100.00
5522;BME280;2783;48.730;8.006;2022-10-13T01:22:12;100602.69;;;13.72;100.00
5522;BME280;2783;48.730;8.006;2022-10-13T01:24:50;100604.41;;;13.73;100.00
5522;BME280;2783;48.730;8.006;2022-10-13T01:30:16;100606.31;;;13.69;100.00
5522;BME280;2783;48.730;8.006;2022-10-13T01:36:04;100602.81;;;13.69;100.00
5522;BME280;2783;48.730;8.006;2022-10-13T01:43:50;100607.19;;;13.70;100.00
5522;BME280;2783;48.730;8.006;2022-10-13T01:46:21;100609.75;;;13.73;100.00
5522;BME280;2783;48.730;8.006;2022-10-13T01:48:47;100607.03;;;13.74;100.00
5522;BME280;2783;48.730;8.006;2022-10-13T01:51:18;100595.69;;;13.68;100.00
5522;BME280;2783;48.730;8.006;2022-10-13T01:53:45;100604.22;;;13.79;100.00
5522;BME280;2783;48.730;8.006;2022-10-13T01:56:11;100614.91;;;13.79;100.00
5522;BME280;2783;48.730;8.006;2022-10-13T01:58:37;100604.09;;;13.82;100.00
5522;BME280;2783;48.730;8.006;2022-10-13T02:06:46;100612.91;;;13.84;100.00
5522;BME280;2783;48.730;8.006;2022-10-13T02:12:06;100606.66;;;13.85;100.00
5522;BME280;2783;48.730;8.006;2022-10-13T02:14:37;100605.72;;;13.86;100.00
5522;BME280;2783;48.730;8.006;2022-10-13T02:17:05;100607.38;;;13.90;100.00
5522;BME280;2783;48.730;8.006;2022-10-13T02:19:33;100605.59;;;13.89;100.00
5522;BME280;2783;48.730;8.006;2022-10-13T02:22:00;100603.88;;;13.88;100.00
5522;BME280;2783;48.730;8.006;2022-10-13T02:24:27;100600.25;;;13.89;100.00
5522;BME280;2783;48.730;8.006;2022-10-13T02:26:52;100593.03;;;13.91;100.00
5522;BME280;2783;48.730;8.006;2022-10-13T02:29:18;100594.69;;;13.95;100.00
5522;BME280;2783;48.730;8.006;2022-10-13T02:31:45;100559.78;;;13.75;100.00
5522;BME280;2783;48.730;8.006;2022-10-13T02:34:11;100599.16;;;13.94;100.00
5522;BME280;2783;48.730;8.006;2022-10-13T02:36:37;100592.03;;;13.95;100.00
5522;BME280;2783;48.730;8.006;2022-10-13T02:39:04;100599.09;;;13.96;100.00
5522;BME280;2783;48.730;8.006;2022-10-13T02:41:30;100600.03;;;13.95;100.00
5522;BME280;2783;48.730;8.006;2022-10-13T02:43:55;100596.53;;;13.93;100.00
5522;BME280;2783;48.730;8.006;2022-10-13T02:46:21;100593.16;;;13.88;100.00
5522;BME280;2783;48.730;8.006;2022-10-13T02:48:46;100590.25;;;13.94;100.00
5522;BME280;2783;48.730;8.006;2022-10-13T02:51:12;100590.25;;;13.94;100.00
5522;BME280;2783;48.730;8.006;2022-10-13T02:53:37;100576.03;;;13.93;100.00
5522;BME280;2783;48.730;8.006;2022-10-13T02:56:02;100565.41;;;13.92;100.00
5522;BME280;2783;48.730;8.006;2022-10-13T02:58:28;100575.16;;;13.93;100.00
5522;BME280;2783;48.730;8.006;2022-10-13T03:00:53;100576.16;;;13.90;100.00
5522;BME280;2783;48.730;8.006;2022-10-13T03:03:19;100581.59;;;13.87;100.00
5522;BME280;2783;48.730;8.006;2022-10-13T03:05:44;100581.81;;;13.81;100.00
5522;BME280;2783;48.730;8.006;2022-10-13T03:08:10;100574.94;;;13.74;100.00
5522;BME280;2783;48.730;8.006;2022-10-13T03:10:35;100595.69;;;13.68;100.00
5522;BME280;2783;48.730;8.006;2022-10-13T03:13:01;100593.25;;;13.62;100.00
5522;BME280;2783;48.730;8.006;2022-10-13T03:15:26;100587.06;;;13.60;100.00
5522;BME280;2783;48.730;8.006;2022-10-13T03:17:52;100586.41;;;13.53;100.00
5522;BME280;2783;48.730;8.006;2022-10-13T03:20:17;100587.41;;;13.51;100.00
5522;BME280;2783;48.730;8.006;2022-10-13T03:22:43;100578.63;;;13.47;100.00
5522;BME280;2783;48.730;8.006;2022-10-13T03:25:08;100569.06;;;13.40;100.00
5522;BME280;2783;48.730;8.006;2022-10-13T03:27:33;100566.72;;;13.31;100.00
5522;BME280;2783;48.730;8.006;2022-10-13T03:29:59;100562.63;;;13.21;100.00
5522;BME280;2783;48.730;8.006;2022-10-13T03:32:25;100573.28;;;13.23;100.00
5522;BME280;2783;48.730;8.006;2022-10-13T03:34:50;100568.16;;;13.15;100.00
5522;BME280;2783;48.730;8.006;2022-10-13T03:37:16;100565.66;;;13.10;100.00
5522;BME280;2783;48.730;8.006;2022-10-13T03:39:41;100567.72;;;13.02;100.00
5522;BME280;2783;48.730;8.006;2022-10-13T03:42:08;100568.91;;;12.92;100.00
5522;BME280;2783;48.730;8.006;2022-10-13T03:44:33;100577.88;;;12.90;100.00
5522;BME280;2783;48.730;8.006;2022-10-13T03:46:58;100582.38;;;12.89;100.00
5522;BME280;2783;48.730;8.006;2022-10-13T03:49:24;100577.94;;;12.88;100.00
5522;BME280;2783;48.730;8.006;2022-10-13T03:51:49;100584.31;;;12.84;100.00
5522;BME280;2783;48.730;8.006;2022-10-13T03:54:15;100592.66;;;12.74;100.00
5522;BME280;2783;48.730;8.006;2022-10-13T03:56:41;100593.03;;;12.63;100.00
5522;BME280;2783;48.730;8.006;2022-10-13T03:59:09;100594.09;;;12.58;100.00
5522;BME280;2783;48.730;8.006;2022-10-13T04:01:35;100590.75;;;12.51;100.00
5522;BME280;2783;48.730;8.006;2022-10-13T04:04:01;100577.88;;;12.36;100.00
5522;BME280;2783;48.730;8.006;2022-10-13T04:06:28;100573.28;;;12.41;100.00
5522;BME280;2783;48.730;8.006;2022-10-13T04:08:54;100561.75;;;12.39;100.00
5522;BME280;2783;48.730;8.006;2022-10-13T04:11:20;100567.97;;;12.40;100.00
5522;BME280;2783;48.730;8.006;2022-10-13T04:13:46;100565.31;;;12.40;100.00
5522;BME280;2783;48.730;8.006;2022-10-13T04:16:20;100560.94;;;12.37;100.00
5522;BME280;2783;48.730;8.006;2022-10-13T04:18:54;100555.69;;;12.34;100.00
5522;BME280;2783;48.730;8.006;2022-10-13T04:21:19;100551.16;;;12.38;100.00
5522;BME280;2783;48.730;8.006;2022-10-13T04:23:45;100552.03;;;12.38;100.00
5522;BME280;2783;48.730;8.006;2022-10-13T04:26:15;100557.38;;;12.38;100.00
5522;BME280;2783;48.730;8.006;2022-10-13T04:28:41;100560.88;;;12.40;100.00
5522;BME280;2783;48.730;8.006;2022-10-13T04:31:07;100545.03;;;12.34;100.00
5522;BME280;2783;48.730;8.006;2022-10-13T04:33:33;100559.09;;;12.39;100.00
5522;BME280;2783;48.730;8.006;2022-10-13T04:36:05;100546.69;;;12.38;100.00
5522;BME280;2783;48.730;8.006;2022-10-13T04:38:31;100534.94;;;12.44;100.00
5522;BME280;2783;48.730;8.006;2022-10-13T04:40:56;100520.47;;;12.51;100.00
5522;BME280;2783;48.730;8.006;2022-10-13T04:43:21;100528.25;;;12.58;100.00
5522;BME280;2783;48.730;8.006;2022-10-13T04:45:47;100527.31;;;12.59;100.00
5522;BME280;2783;48.730;8.006;2022-10-13T04:48:12;100526.50;;;12.57;100.00
5522;BME280;2783;48.730;8.006;2022-10-13T04:50:39;100519.41;;;12.56;100.00
5522;BME280;2783;48.730;8.006;2022-10-13T04:53:05;100535.47;;;12.55;100.00
5522;BME280;2783;48.730;8.006;2022-10-13T04:55:34;100518.59;;;12.54;100.00
5522;BME280;2783;48.730;8.006;2022-10-13T04:58:00;100517.59;;;12.58;100.00
5522;BME280;2783;48.730;8.006;2022-10-13T05:00:25;100518.44;;;12.59;100.00
5522;BME280;2783;48.730;8.006;2022-10-13T05:02:51;100525.31;;;12.66;100.00
5522;BME280;2783;48.730;8.006;2022-10-13T05:05:16;100521.69;;;12.68;100.00
5522;BME280;2783;48.730;8.006;2022-10-13T05:07:42;100520.75;;;12.69;100.00
5522;BME280;2783;48.730;8.006;2022-10-13T05:10:08;100518.91;;;12.71;100.00
5522;BME280;2783;48.730;8.006;2022-10-13T05:12:34;100513.47;;;12.74;100.00
5522;BME280;2783;48.730;8.006;2022-10-13T05:14:59;100516.97;;;12.76;100.00
5522;BME280;2783;48.730;8.006;2022-10-13T05:17:25;100515.44;;;12.69;100.00
5522;BME280;2783;48.730;8.006;2022-10-13T05:19:50;100511.81;;;12.70;100.00
5522;BME280;2783;48.730;8.006;2022-10-13T05:22:15;100515.53;;;12.66;100.00
5522;BME280;2783;48.730;8.006;2022-10-13T05:24:41;100511.47;;;12.55;100.00
5522;BME280;2783;48.730;8.006;2022-10-13T05:27:11;100508.97;;;12.50;100.00
5522;BME280;2783;48.730;8.006;2022-10-13T05:29:37;100518.19;;;12.40;100.00
5522;BME280;2783;48.730;8.006;2022-10-13T05:32:04;100513.84;;;12.36;100.00
5522;BME280;2783;48.730;8.006;2022-10-13T05:34:29;100511.28;;;12.33;100.00
5522;BME280;2783;48.730;8.006;2022-10-13T05:36:55;100511.38;;;12.30;100.00
5522;BME280;2783;48.730;8.006;2022-10-13T05:39:20;100514.00;;;12.32;100.00
5522;BME280;2783;48.730;8.006;2022-10-13T05:41:46;100508.78;;;12.29;100.00
5522;BME280;2783;48.730;8.006;2022-10-13T05:44:11;100507.78;;;12.31;100.00
5522;BME280;2783;48.730;8.006;2022-10-13T05:46:37;100513.00;;;12.34;100.00
5522;BME280;2783;48.730;8.006;2022-10-13T05:49:03;100519.38;;;12.30;100.00
5522;BME280;2783;48.730;8.006;2022-10-13T05:51:34;100523.88;;;12.28;100.00
5522;BME280;2783;48.730;8.006;2022-10-13T05:57:21;100534.47;;;12.31;100.00
5522;BME280;2783;48.730;8.006;2022-10-13T05:59:55;100528.28;;;12.29;100.00
5522;BME280;2783;48.730;8.006;2022-10-13T06:02:25;100530.09;;;12.29;100.00
5522;BME280;2783;48.730;8.006;2022-10-13T06:04:54;100532.72;;;12.30;100.00
5522;BME280;2783;48.730;8.006;2022-10-13T06:07:21;100524.56;;;12.35;100.00
5522;BME280;2783;48.730;8.006;2022-10-13T06:09:47;100524.38;;;12.41;100.00
5522;BME280;2783;48.730;8.006;2022-10-13T06:12:14;100525.03;;;12.47;100.00
5522;BME280;2783;48.730;8.006;2022-10-13T06:14:39;100528.44;;;12.52;100.00
5522;BME280;2783;48.730;8.006;2022-10-13T06:17:06;100538.06;;;12.58;100.00
5522;BME280;2783;48.730;8.006;2022-10-13T06:19:32;100539.66;;;12.63;100.00
5522;BME280;2783;48.730;8.006;2022-10-13T06:21:58;100527.94;;;12.67;100.00
5522;BME280;2783;48.730;8.006;2022-10-13T06:24:23;100524.22;;;12.73;100.00
5522;BME280;2783;48.730;8.006;2022-10-13T06:26:49;100529.28;;;12.80;100.00
5522;BME280;2783;48.730;8.006;2022-10-13T06:29:14;100521.13;;;12.85;100.00
5522;BME280;2783;48.730;8.006;2022-10-13T06:31:40;100520.75;;;12.95;100.00
5522;BME280;2783;48.730;8.006;2022-10-13T06:34:05;100519.53;;;13.05;100.00
5522;BME280;2783;48.730;8.006;2022-10-13T06:36:31;100522.81;;;13.13;100.00
5522;BME280;2783;48.730;8.006;2022-10-13T06:38:57;100520.69;;;13.23;100.00
5522;BME280;2783;48.730;8.006;2022-10-13T06:41:22;100522.28;;;13.29;100.00
5522;BME280;2783;48.730;8.006;2022-10-13T06:43:48;100525.44;;;13.40;100.00
5522;BME280;2783;48.730;8.006;2022-10-13T06:46:14;100519.91;;;13.46;100.00
5522;BME280;2783;48.730;8.006;2022-10-13T06:48:39;100516.16;;;13.50;100.00
5522;BME280;2783;48.730;8.006;2022-10-13T06:51:07;100514.19;;;13.55;100.00
5522;BME280;2783;48.730;8.006;2022-10-13T06:53:33;100513.97;;;13.61;100.00
5522;BME280;2783;48.730;8.006;2022-10-13T06:56:00;100516.53;;;13.64;100.00
5522;BME280;2783;48.730;8.006;2022-10-13T06:58:26;100518.09;;;13.69;100.00
5522;BME280;2783;48.730;8.006;2022-10-13T07:00:52;100517.88;;;13.75;100.00
5522;BME280;2783;48.730;8.006;2022-10-13T07:03:18;100519.63;;;13.76;100.00
5522;BME280;2783;48.730;8.006;2022-10-13T07:05:43;100516.75;;;13.81;100.00
5522;BME280;2783;48.730;8.006;2022-10-13T07:08:09;100518.28;;;13.88;100.00
5522;BME280;2783;48.730;8.006;2022-10-13T07:10:36;100521.66;;;13.93;100.00
5522;BME280;2783;48.730;8.006;2022-10-13T07:13:02;100531.19;;;14.00;100.00
5522;BME280;2783;48.730;8.006;2022-10-13T07:15:27;100513.44;;;13.97;100.00
5522;BME280;2783;48.730;8.006;2022-10-13T07:17:53;100527.25;;;14.10;100.00
5522;BME280;2783;48.730;8.006;2022-10-13T07:20:20;100529.66;;;14.16;100.00
5522;BME280;2783;48.730;8.006;2022-10-13T07:22:46;100527.69;;;14.21;100.00
5522;BME280;2783;48.730;8.006;2022-10-13T07:25:12;100535.50;;;14.27;100.00
5522;BME280;2783;48.730;8.006;2022-10-13T07:27:37;100527.41;;;14.28;100.00
5522;BME280;2783;48.730;8.006;2022-10-13T07:30:06;100509.44;;;14.32;100.00
5522;BME280;2783;48.730;8.006;2022-10-13T07:32:32;100523.28;;;14.43;100.00
5522;BME280;2783;48.730;8.006;2022-10-13T07:34:57;100516.66;;;14.51;100.00
5522;BME280;2783;48.730;8.006;2022-10-13T07:37:23;100511.81;;;14.61;100.00
5522;BME280;2783;48.730;8.006;2022-10-13T07:39:49;100510.69;;;14.67;100.00
5522;BME280;2783;48.730;8.006;2022-10-13T07:42:15;100510.47;;;14.71;100.00
5522;BME280;2783;48.730;8.006;2022-10-13T07:44:41;100508.31;;;14.81;100.00
5522;BME280;2783;48.730;8.006;2022-10-13T07:47:06;100491.63;;;14.74;100.00
5522;BME280;2783;48.730;8.006;2022-10-13T07:49:32;100500.44;;;14.76;100.00
5522;BME280;2783;48.730;8.006;2022-10-13T07:51:57;100495.91;;;14.78;100.00
5522;BME280;2783;48.730;8.006;2022-10-13T07:54:23;100495.00;;;14.79;100.00
5522;BME280;2783;48.730;8.006;2022-10-13T07:56:51;100495.53;;;14.87;100.00
5522;BME280;2783;48.730;8.006;2022-10-13T07:59:17;100487.38;;;14.90;100.00
5522;BME280;2783;48.730;8.006;2022-10-13T08:01:43;100494.06;;;15.00;100.00
5522;BME280;2783;48.730;8.006;2022-10-13T08:04:08;100499.97;;;15.08;100.00
5522;BME280;2783;48.730;8.006;2022-10-13T08:06:34;100486.63;;;15.07;100.00
5522;BME280;2783;48.730;8.006;2022-10-13T08:08:59;100491.72;;;15.13;100.00
5522;BME280;2783;48.730;8.006;2022-10-13T08:11:25;100488.91;;;15.16;100.00
5522;BME280;2783;48.730;8.006;2022-10-13T08:13:52;100492.47;;;15.16;100.00
5522;BME280;2783;48.730;8.006;2022-10-13T08:16:18;100484.28;;;15.19;100.00
5522;BME280;2783;48.730;8.006;2022-10-13T08:18:44;100503.56;;;15.27;100.00
5522;BME280;2783;48.730;8.006;2022-10-13T08:21:15;100499.03;;;15.29;100.00
5522;BME280;2783;48.730;8.006;2022-10-13T08:23:44;100504.00;;;15.38;100.00
5522;BME280;2783;48.730;8.006;2022-10-13T08:26:21;100486.72;;;15.45;100.00
5522;BME280;2783;48.730;8.006;2022-10-13T08:28:47;100496.28;;;15.51;100.00
5522;BME280;2783;48.730;8.006;2022-10-13T08:31:13;100496.66;;;15.62;100.00
5522;BME280;2783;48.730;8.006;2022-10-13T08:33:38;100497.16;;;15.71;100.00
5522;BME280;2783;48.730;8.006;2022-10-13T08:36:06;100496.13;;;15.74;100.00
5522;BME280;2783;48.730;8.006;2022-10-13T08:38:31;100495.72;;;15.83;100.00
5522;BME280;2783;48.730;8.006;2022-10-13T08:40:56;100497.22;;;15.89;100.00
5522;BME280;2783;48.730;8.006;2022-10-13T08:43:22;100494.38;;;15.92;100.00
5522;BME280;2783;48.730;8.006;2022-10-13T08:45:50;100500.22;;;16.01;100.00
5522;BME280;2783;48.730;8.006;2022-10-13T08:48:25;100482.13;;;16.05;100.00
5522;BME280;2783;48.730;8.006;2022-10-13T08:50:54;100475.69;;;16.09;100.00
5522;BME280;2783;48.730;8.006;2022-10-13T08:53:42;100494.84;;;16.20;100.00
5522;BME280;2783;48.730;8.006;2022-10-13T08:59:03;100477.91;;;16.55;100.00
5522;BME280;2783;48.730;8.006;2022-10-13T09:01:33;100479.75;;;16.71;100.00
5522;BME280;2783;48.730;8.006;2022-10-13T09:04:30;100483.97;;;16.94;100.00
5522;BME280;2783;48.730;8.006;2022-10-13T09:07:15;100483.16;;;16.92;99.83
5522;BME280;2783;48.730;8.006;2022-10-13T09:09:42;100485.16;;;16.88;99.62
5522;BME280;2783;48.730;8.006;2022-10-13T09:12:10;100492.03;;;16.94;99.31
5522;BME280;2783;48.730;8.006;2022-10-13T09:14:38;100489.50;;;16.91;99.64
5522;BME280;2783;48.730;8.006;2022-10-13T09:17:17;100496.59;;;16.92;99.57
5522;BME280;2783;48.730;8.006;2022-10-13T09:19:43;100494.56;;;16.97;100.00
5522;BME280;2783;48.730;8.006;2022-10-13T09:22:22;100491.56;;;17.03;99.95
5522;BME280;2783;48.730;8.006;2022-10-13T09:30:37;100479.81;;;17.72;98.51
5522;BME280;2783;48.730;8.006;2022-10-13T09:35:39;100482.66;;;18.17;96.71
5522;BME280;2783;48.730;8.006;2022-10-13T09:38:22;100483.03;;;18.43;95.13
5522;BME280;2783;48.730;8.006;2022-10-13T09:41:16;100476.72;;;18.89;93.29
5522;BME280;2783;48.730;8.006;2022-10-13T09:46:21;100479.03;;;18.95;87.44
5522;BME280;2783;48.730;8.006;2022-10-13T09:48:50;100483.47;;;18.96;88.25
5522;BME280;2783;48.730;8.006;2022-10-13T09:51:39;100487.22;;;18.93;89.35
5522;BME280;2783;48.730;8.006;2022-10-13T09:54:21;100477.84;;;19.14;89.41
5522;BME280;2783;48.730;8.006;2022-10-13T09:56:52;100477.09;;;19.42;88.66
5522;BME280;2783;48.730;8.006;2022-10-13T09:59:34;100474.22;;;19.73;85.99
5522;BME280;2783;48.730;8.006;2022-10-13T10:02:21;100468.22;;;19.82;85.67
5522;BME280;2783;48.730;8.006;2022-10-13T10:04:50;100466.88;;;19.89;85.16
5522;BME280;2783;48.730;8.006;2022-10-13T10:07:20;100473.63;;;19.96;85.16
5522;BME280;2783;48.730;8.006;2022-10-13T10:09:51;100470.66;;;19.87;84.58
5522;BME280;2783;48.730;8.006;2022-10-13T10:12:20;100477.84;;;19.58;84.30
5522;BME280;2783;48.730;8.006;2022-10-13T10:14:47;100461.28;;;19.50;84.77
5522;BME280;2783;48.730;8.006;2022-10-13T10:17:37;100465.31;;;19.43;85.48
5522;BME280;2783;48.730;8.006;2022-10-13T10:25:55;100469.53;;;19.33;85.59
5522;BME280;2783;48.730;8.006;2022-10-13T10:34:05;100463.13;;;19.20;87.58
5522;BME280;2783;48.730;8.006;2022-10-13T10:39:40;100460.09;;;19.54;87.49
5522;BME280;2783;48.730;8.006;2022-10-13T10:45:02;100455.88;;;20.06;84.60
5522;BME280;2783;48.730;8.006;2022-10-13T10:47:38;100446.72;;;20.23;83.03
5522;BME280;2783;48.730;8.006;2022-10-13T10:50:07;100443.84;;;20.38;83.08
5522;BME280;2783;48.730;8.006;2022-10-13T10:58:04;100450.19;;;20.51;80.49
5522;BME280;2783;48.730;8.006;2022-10-13T11:00:36;100441.00;;;20.54;81.16
5522;BME280;2783;48.730;8.006;2022-10-13T11:03:33;100427.31;;;20.69;80.15
5522;BME280;2783;48.730;8.006;2022-10-13T11:06:04;100429.50;;;21.04;79.50
5522;BME280;2783;48.730;8.006;2022-10-13T11:08:40;100429.75;;;21.38;78.27
5522;BME280;2783;48.730;8.006;2022-10-13T11:13:52;100417.38;;;21.72;74.85
5522;BME280;2783;48.730;8.006;2022-10-13T11:16:38;100420.97;;;21.60;74.15
5522;BME280;2783;48.730;8.006;2022-10-13T11:45:47;100372.22;;;23.03;65.91
5522;BME280;2783;48.730;8.006;2022-10-13T11:51:31;100365.91;;;22.91;66.02
5522;BME280;2783;48.730;8.006;2022-10-13T11:56:43;100358.91;;;22.42;65.92
5522;BME280;2783;48.730;8.006;2022-10-13T11:59:29;100353.34;;;22.19;67.77
5522;BME280;2783;48.730;8.006;2022-10-13T12:02:10;100339.47;;;22.00;67.79
5522;BME280;2783;48.730;8.006;2022-10-13T12:04:38;100358.38;;;21.64;69.68
5522;BME280;2783;48.730;8.006;2022-10-13T12:07:07;100357.44;;;21.28;70.39
5522;BME280;2783;48.730;8.006;2022-10-13T12:09:36;100346.38;;;21.06;71.81
5522;BME280;2783;48.730;8.006;2022-10-13T12:12:12;100346.16;;;20.83;73.87
5522;BME280;2783;48.730;8.006;2022-10-13T12:14:41;100350.66;;;20.70;74.32
5522;BME280;2783;48.730;8.006;2022-10-13T12:17:27;100345.53;;;20.53;75.89
5522;BME280;2783;48.730;8.006;2022-10-13T12:19:58;100334.16;;;20.36;76.43
5522;BME280;2783;48.730;8.006;2022-10-13T12:22:24;100328.03;;;20.20;77.39
5522;BME280;2783;48.730;8.006;2022-10-13T12:25:00;100329.09;;;20.17;77.14
5522;BME280;2783;48.730;8.006;2022-10-13T12:27:28;100329.34;;;20.27;78.73
5522;BME280;2783;48.730;8.006;2022-10-13T12:29:57;100319.00;;;20.33;77.32
5522;BME280;2783;48.730;8.006;2022-10-13T12:32:26;100323.78;;;20.42;78.08
5522;BME280;2783;48.730;8.006;2022-10-13T12:34:51;100330.09;;;20.55;77.75
5522;BME280;2783;48.730;8.006;2022-10-13T12:37:28;100322.53;;;20.60;76.39
5522;BME280;2783;48.730;8.006;2022-10-13T12:39:56;100324.47;;;20.58;76.52
5522;BME280;2783;48.730;8.006;2022-10-13T12:42:28;100319.94;;;20.71;77.23
5522;BME280;2783;48.730;8.006;2022-10-13T12:44:55;100319.28;;;20.68;76.25
5522;BME280;2783;48.730;8.006;2022-10-13T12:47:51;100323.09;;;20.65;77.17
5522;BME280;2783;48.730;8.006;2022-10-13T12:50:30;100329.31;;;20.53;77.08
5522;BME280;2783;48.730;8.006;2022-10-13T12:55:34;100314.09;;;20.52;79.33
5522;BME280;2783;48.730;8.006;2022-10-13T12:58:01;100308.34;;;20.57;78.98
5522;BME280;2783;48.730;8.006;2022-10-13T13:00:28;100297.75;;;20.54;79.94
5522;BME280;2783;48.730;8.006;2022-10-13T13:03:02;100311.94;;;20.57;78.61
5522;BME280;2783;48.730;8.006;2022-10-13T13:05:37;100309.22;;;20.57;78.77
5522;BME280;2783;48.730;8.006;2022-10-13T13:08:21;100313.44;;;20.49;79.21
5522;BME280;2783;48.730;8.006;2022-10-13T13:11:00;100325.22;;;20.60;79.89
5522;BME280;2783;48.730;8.006;2022-10-13T13:13:27;100325.44;;;20.57;79.11
5522;BME280;2783;48.730;8.006;2022-10-13T13:15:53;100324.69;;;20.55;78.76
5522;BME280;2783;48.730;8.006;2022-10-13T13:18:38;100333.34;;;20.73;79.36
5522;BME280;2783;48.730;8.006;2022-10-13T13:21:15;100330.75;;;20.71;79.41
5522;BME280;2783;48.730;8.006;2022-10-13T13:23:43;100328.50;;;20.78;79.21
5522;BME280;2783;48.730;8.006;2022-10-13T13:26:15;100317.78;;;20.76;78.81
5522;BME280;2783;48.730;8.006;2022-10-13T13:28:45;100314.22;;;20.76;79.06
5522;BME280;2783;48.730;8.006;2022-10-13T13:31:11;100313.91;;;20.80;78.89
5522;BME280;2783;48.730;8.006;2022-10-13T13:33:37;100321.25;;;20.91;79.37
5522;BME280;2783;48.730;8.006;2022-10-13T13:36:03;100322.25;;;21.03;78.50
5522;BME280;2783;48.730;8.006;2022-10-13T13:38:29;100313.75;;;21.09;79.41
5522;BME280;2783;48.730;8.006;2022-10-13T13:40:54;100318.72;;;21.15;78.07
5522;BME280;2783;48.730;8.006;2022-10-13T13:43:20;100310.38;;;21.18;78.23
5522;BME280;2783;48.730;8.006;2022-10-13T13:45:45;100313.06;;;21.18;78.16
5522;BME280;2783;48.730;8.006;2022-10-13T13:48:11;100312.88;;;21.08;78.42
5522;BME280;2783;48.730;8.006;2022-10-13T13:50:37;100303.31;;;20.90;77.85
5522;BME280;2783;48.730;8.006;2022-10-13T13:53:03;100299.19;;;20.84;78.85
5522;BME280;2783;48.730;8.006;2022-10-13T13:55:29;100298.22;;;20.85;79.63
5522;BME280;2783;48.730;8.006;2022-10-13T13:57:56;100300.47;;;20.79;79.71
5522;BME280;2783;48.730;8.006;2022-10-13T14:00:21;100299.91;;;20.61;78.61
5522;BME280;2783;48.730;8.006;2022-10-13T14:02:47;100300.91;;;20.60;79.58
5522;BME280;2783;48.730;8.006;2022-10-13T14:05:12;100295.50;;;20.60;80.32
5522;BME280;2783;48.730;8.006;2022-10-13T14:07:39;100301.53;;;20.51;81.21
5522;BME280;2783;48.730;8.006;2022-10-13T14:10:05;100300.75;;;20.49;82.27
5522;BME280;2783;48.730;8.006;2022-10-13T14:12:31;100294.84;;;20.44;82.87
5522;BME280;2783;48.730;8.006;2022-10-13T14:14:57;100294.69;;;20.33;84.10
5522;BME280;2783;48.730;8.006;2022-10-13T14:17:24;100289.47;;;20.30;84.62
5522;BME280;2783;48.730;8.006;2022-10-13T14:19:49;100294.13;;;20.28;84.69
5522;BME280;2783;48.730;8.006;2022-10-13T14:22:15;100272.16;;;20.20;85.47
5522;BME280;2783;48.730;8.006;2022-10-13T14:24:40;100285.47;;;20.23;86.04
5522;BME280;2783;48.730;8.006;2022-10-13T14:27:05;100288.16;;;20.23;86.91
5522;BME280;2783;48.730;8.006;2022-10-13T14:29:33;100289.03;;;20.24;87.16
5522;BME280;2783;48.730;8.006;2022-10-13T14:31:59;100290.88;;;20.23;87.72
5522;BME280;2783;48.730;8.006;2022-10-13T14:34:24;100291.06;;;20.20;87.92
5522;BME280;2783;48.730;8.006;2022-10-13T14:36:49;100293.00;;;20.18;87.30
5522;BME280;2783;48.730;8.006;2022-10-13T14:39:15;100289.47;;;20.18;87.74
5522;BME280;2783;48.730;8.006;2022-10-13T14:41:40;100304.03;;;20.15;88.21
5522;BME280;2783;48.730;8.006;2022-10-13T14:44:06;100284.31;;;20.13;88.33
5522;BME280;2783;48.730;8.006;2022-10-13T14:46:31;100287.22;;;20.10;88.62
5522;BME280;2783;48.730;8.006;2022-10-13T14:48:56;100282.91;;;20.08;89.51
5522;BME280;2783;48.730;8.006;2022-10-13T14:51:23;100283.03;;;20.06;89.85
5522;BME280;2783;48.730;8.006;2022-10-13T14:53:49;100271.66;;;20.01;90.35
5522;BME280;2783;48.730;8.006;2022-10-13T14:58:40;100278.00;;;20.00;91.58
5522;BME280;2783;48.730;8.006;2022-10-13T15:01:05;100281.91;;;19.96;91.20
5522;BME280;2783;48.730;8.006;2022-10-13T15:03:31;100275.19;;;20.02;91.73